Time;durP1;ratioP1;P1;durP2;ratioP2;P2;SDS_P1;SDS_P2;PMS_P1;PMS_P2;Temp;Humidity;BMP_temperature;BMP_pressure;BME280_temperature;BME280_humidity;BME280_pressure;Samples;Min_cycle;Max_cycle;Signal;HPM_P1;HPM_P2
2022/08/09 00:01:39;;;;;;;5.15;4.22;;;;;;;20.85;48.23;94916.69;5056028;28;20032;-81
2022/08/09 00:04:04;;;;;;;5.40;4.25;;;;;;;21.18;47.68;94969.81;5073460;28;20033;-81
2022/08/09 00:06:30;;;;;;;6.22;4.55;;;;;;;20.77;48.27;94916.78;5073668;28;20039;-81
2022/08/09 00:08:56;;;;;;;5.65;4.35;;;;;;;20.68;48.18;94918.75;5072068;28;20461;-82
2022/08/09 00:11:21;;;;;;;6.28;4.50;;;;;;;20.81;48.39;94944.47;5073423;28;20474;-81
2022/08/09 00:13:48;;;;;;;6.65;4.72;;;;;;;20.96;48.36;94976.91;5055577;28;20024;-81
2022/08/09 00:16:13;;;;;;;5.15;4.35;;;;;;;20.61;48.19;94924.94;5072613;28;20032;-81
2022/08/09 00:18:39;;;;;;;4.88;4.38;;;;;;;20.46;48.66;94917.84;5072853;28;20052;-81
2022/08/09 00:21:05;;;;;;;4.72;4.22;;;;;;;20.84;48.58;94975.78;5073389;28;20418;-81
2022/08/09 00:23:31;;;;;;;5.57;4.10;;;;;;;20.62;48.63;94937.16;5070959;28;20024;-81
2022/08/09 00:25:56;;;;;;;5.88;4.32;;;;;;;20.54;48.48;94916.97;5054606;28;20032;-81
2022/08/09 00:28:22;;;;;;;5.40;4.30;;;;;;;20.64;48.44;94921.94;5073123;28;20031;-81
2022/08/09 00:30:51;;;;;;;5.18;4.35;;;;;;;20.51;48.80;94935.78;5073242;28;20025;-81
2022/08/09 00:33:16;;;;;;;7.20;4.65;;;;;;;20.47;48.74;94916.84;5073578;28;20032;-83
2022/08/09 00:35:42;;;;;;;5.00;4.50;;;;;;;20.39;48.98;94930.13;5071770;28;20028;-83
2022/08/09 00:38:11;;;;;;;5.78;4.50;;;;;;;20.55;49.31;94952.06;5071496;28;20028;-83
2022/08/09 00:40:38;;;;;;;6.10;3.97;;;;;;;20.90;50.21;94996.13;5054676;28;20158;-84
2022/08/09 00:43:03;;;;;;;5.40;4.38;;;;;;;20.97;49.58;94989.09;5073302;28;20037;-83
2022/08/09 00:45:29;;;;;;;6.72;4.20;;;;;;;20.62;49.75;94947.72;5069497;28;20017;-82
2022/08/09 00:47:54;;;;;;;5.68;4.20;;;;;;;20.47;51.52;94940.59;5072484;28;20119;-83
2022/08/09 00:50:20;;;;;;;4.88;4.10;;;;;;;20.90;51.79;94997.97;5070650;28;20039;-83
2022/08/09 00:52:45;;;;;;;7.53;4.63;;;;;;;20.77;52.10;94997.81;5054164;28;20035;-83
2022/08/09 00:55:11;;;;;;;4.70;4.20;;;;;;;20.42;52.27;94950.06;5071394;28;20094;-83
2022/08/09 00:57:36;;;;;;;5.13;4.10;;;;;;;20.31;51.76;94946.09;5072492;28;20032;-83
2022/08/09 01:00:07;;;;;;;4.93;4.20;;;;;;;20.62;50.96;95000.47;5071603;28;20024;-83
2022/08/09 01:02:33;;;;;;;4.97;4.20;;;;;;;20.34;52.24;94961.53;5072810;28;20037;-83
2022/08/09 01:05:01;;;;;;;5.78;4.07;;;;;;;20.62;52.65;95013.69;5071406;28;20025;-83
2022/08/09 01:07:38;;;;;;;4.80;3.97;;;;;;;20.11;52.70;94960.81;5072039;28;20040;-83
2022/08/09 01:10:33;;;;;;;4.60;4.03;;;;;;;20.40;51.72;95013.56;5071367;28;20055;-83
2022/08/09 01:13:07;;;;;;;4.97;4.32;;;;;;;20.47;51.89;95019.72;5062776;28;20056;-83
2022/08/09 01:15:36;;;;;;;5.70;4.30;;;;;;;20.20;52.93;94962.38;5071107;28;20044;-83
2022/08/09 01:18:04;;;;;;;5.30;4.22;;;;;;;20.11;52.92;94958.19;5055177;28;20028;-83
2022/08/09 01:20:47;;;;;;;4.93;4.43;;;;;;;20.13;52.66;94956.19;5071939;28;20467;-83
2022/08/09 01:23:40;;;;;;;5.05;4.03;;;;;;;20.47;51.37;94997.81;5071128;28;20090;-83
2022/08/09 01:26:30;;;;;;;6.40;4.65;;;;;;;20.43;50.86;95005.28;5070266;28;20036;-82
2022/08/09 01:28:56;;;;;;;6.60;4.32;;;;;;;20.11;50.32;94951.06;5071311;28;20033;-82
2022/08/09 01:31:24;;;;;;;5.25;4.13;;;;;;;20.12;50.06;94951.91;5054222;28;20041;-82
2022/08/09 01:33:50;;;;;;;6.25;4.40;;;;;;;20.11;50.00;94939.72;5054303;28;20078;-83
2022/08/09 01:36:18;;;;;;;6.25;4.30;;;;;;;20.47;50.28;94997.81;5053404;28;20488;-83
2022/08/09 01:38:44;;;;;;;5.57;4.30;;;;;;;20.27;50.05;94960.63;5046088;28;20490;-82
2022/08/09 01:41:40;;;;;;;6.22;3.90;;;;;;;20.13;49.87;94917.44;5050632;28;20029;-83
2022/08/09 01:44:05;;;;;;;6.70;4.10;;;;;;;20.10;51.16;94902.00;5053223;28;20436;-83
2022/08/09 01:46:36;;;;;;;4.82;4.05;;;;;;;20.15;51.04;94906.72;5048501;28;20113;-83
2022/08/09 01:49:15;;;;;;;6.82;4.15;;;;;;;20.31;51.70;94946.09;5051915;28;20490;-82
2022/08/09 01:51:42;;;;;;;6.85;4.45;;;;;;;20.13;51.44;94917.44;5046187;28;20078;-83
2022/08/09 01:54:08;;;;;;;5.28;4.32;;;;;;;20.13;51.44;94917.44;5069961;28;20498;-83
2022/08/09 01:56:33;;;;;;;5.97;4.07;;;;;;;20.02;51.41;94900.25;5069300;28;20036;-83
2022/08/09 01:59:00;;;;;;;4.47;3.80;;;;;;;20.18;50.99;94933.53;5053591;28;20498;-83
2022/08/09 02:01:26;;;;;;;6.70;4.10;;;;;;;20.16;50.80;94916.25;5053196;28;20093;-83
2022/08/09 02:03:52;;;;;;;6.65;4.13;;;;;;;20.34;50.93;94934.31;5070183;28;20024;-83
2022/08/09 02:07:07;;;;;;;6.13;4.13;;;;;;;20.10;50.70;94886.16;5053349;28;20040;-83
2022/08/09 02:09:03;;;;;;;5.80;3.80;;;;;;;20.35;50.41;94904.31;5069867;28;20032;-83
2022/08/09 02:11:28;;;;;;;5.75;4.10;;;;;;;20.61;50.64;94936.31;5053032;28;20040;-83
2022/08/09 02:13:54;;;;;;;5.38;3.90;;;;;;;20.38;50.16;94904.75;5069707;28;20091;-83
2022/08/09 02:16:19;;;;;;;5.90;3.85;;;;;;;20.40;49.89;94886.94;5053091;28;20482;-83
2022/08/09 02:18:45;;;;;;;5.63;3.92;;;;;;;20.51;49.93;94918.13;5052743;28;20041;-83
2022/08/09 02:21:12;;;;;;;4.90;3.95;;;;;;;20.81;49.58;94943.63;5047574;28;20028;-83
2022/08/09 02:23:41;;;;;;;6.03;3.97;;;;;;;20.60;49.49;94899.56;5066130;28;20029;-83
2022/08/09 02:26:06;;;;;;;4.85;3.80;;;;;;;20.63;49.24;94886.81;5050068;28;20029;-83
2022/08/09 02:28:38;;;;;;;6.13;3.90;;;;;;;20.85;49.61;94911.41;5067025;28;20028;-83
2022/08/09 02:31:07;;;;;;;5.68;3.97;;;;;;;21.01;47.91;94917.44;5066379;28;20406;-83
2022/08/09 02:33:37;;;;;;;5.15;4.15;;;;;;;20.87;49.53;94908.59;5052978;28;20032;-83
2022/08/09 02:36:05;;;;;;;4.50;3.85;;;;;;;21.05;50.59;94926.63;5068306;28;20047;-82
2022/08/09 02:38:35;;;;;;;6.03;3.83;;;;;;;20.79;50.89;94920.06;5069464;28;20036;-83
2022/08/09 02:41:08;;;;;;;5.40;4.03;;;;;;;20.89;52.40;94931.13;5053174;28;20052;-82
2022/08/09 02:43:34;;;;;;;5.82;3.90;;;;;;;20.77;52.00;94915.97;5069438;28;20051;-83
2022/08/09 02:46:00;;;;;;;5.55;4.13;;;;;;;20.94;52.91;94941.94;5068885;28;20494;-83
2022/08/09 02:48:25;;;;;;;5.40;3.90;;;;;;;20.66;52.86;94922.56;5068658;28;20070;-83
2022/08/09 02:50:52;;;;;;;5.30;3.80;;;;;;;20.42;52.99;94926.31;5051138;28;20033;-83
2022/08/09 02:53:21;;;;;;;5.68;3.80;;;;;;;20.36;53.45;94914.69;5036112;28;20082;-83
2022/08/09 02:55:47;;;;;;;5.05;4.13;;;;;;;20.37;54.28;94933.97;5036339;28;20032;-83
2022/08/09 02:58:13;;;;;;;4.45;3.85;;;;;;;20.11;53.77;94927.34;5069210;28;20040;-83
2022/08/09 03:00:39;;;;;;;4.43;4.03;;;;;;;20.01;54.27;94914.47;5052264;28;20033;-82
2022/08/09 03:03:04;;;;;;;4.95;3.92;;;;;;;20.36;53.60;94977.16;5052586;28;20098;-83
2022/08/09 03:05:30;;;;;;;5.45;4.20;;;;;;;19.91;53.48;94921.00;5049153;28;20032;-83
2022/08/09 03:07:55;;;;;;;5.22;4.07;;;;;;;19.92;53.62;94928.75;5069450;28;20116;-83
2022/08/09 03:10:21;;;;;;;8.65;4.47;;;;;;;19.99;54.27;94932.28;5052561;28;20025;-81
2022/08/09 03:12:46;;;;;;;5.25;4.65;;;;;;;20.00;53.98;94936.56;5068778;28;20169;-83
2022/08/09 03:15:12;;;;;;;4.90;4.40;;;;;;;20.04;53.81;94942.28;5052199;28;20028;-83
2022/08/09 03:17:38;;;;;;;6.10;4.57;;;;;;;20.17;54.40;94976.75;5069292;28;20040;-83
2022/08/09 03:20:04;;;;;;;5.78;5.15;;;;;;;19.76;54.04;94910.47;5068597;28;20426;-81
2022/08/09 03:22:30;;;;;;;5.43;4.53;;;;;;;20.14;54.45;94987.63;5069157;28;20044;-82
2022/08/09 03:24:56;;;;;;;5.10;4.60;;;;;;;19.75;54.65;94917.56;5069310;28;20032;-82
2022/08/09 03:27:22;;;;;;;7.93;4.80;;;;;;;19.76;54.77;94926.28;5052448;28;20051;-82
2022/08/09 03:29:49;;;;;;;5.93;5.07;;;;;;;20.11;54.74;94985.34;5069498;28;20020;-82
2022/08/09 03:32:14;;;;;;;5.65;5.00;;;;;;;19.66;55.11;94917.81;5051805;28;20037;-83
2022/08/09 03:34:40;;;;;;;5.32;4.82;;;;;;;19.63;55.30;94921.59;5069073;28;20029;-82
2022/08/09 03:37:05;;;;;;;5.45;4.95;;;;;;;19.62;55.58;94931.31;5052490;28;20048;-83
2022/08/09 03:39:31;;;;;;;6.22;5.25;;;;;;;19.81;56.14;94987.19;5068667;28;20040;-83
2022/08/09 03:41:56;;;;;;;6.65;5.45;;;;;;;19.51;56.40;94944.91;5069122;28;20155;-82
2022/08/09 03:44:24;;;;;;;5.60;4.88;;;;;;;19.58;56.14;94952.91;5069013;28;20106;-82
2022/08/09 03:46:50;;;;;;;5.80;5.20;;;;;;;19.43;55.84;94931.81;5048965;28;20056;-83
2022/08/09 03:49:15;;;;;;;7.38;5.32;;;;;;;19.84;55.77;94987.63;5065130;28;20479;-83
2022/08/09 03:51:43;;;;;;;6.32;4.75;;;;;;;19.42;55.83;94933.66;5069147;28;20566;-83
2022/08/09 03:54:11;;;;;;;6.45;5.00;;;;;;;19.52;55.94;94946.53;5068853;28;20426;-82
2022/08/09 03:56:38;;;;;;;8.60;5.43;;;;;;;19.43;56.00;94942.34;5068465;28;20078;-82
2022/08/09 03:59:04;;;;;;;6.90;5.07;;;;;;;19.46;56.09;94942.00;5053926;28;20028;-83
2022/08/09 04:01:29;;;;;;;6.88;5.10;;;;;;;19.72;56.56;94972.41;5072829;28;20398;-83
2022/08/09 04:03:55;;;;;;;7.97;4.88;;;;;;;19.45;57.35;94950.91;5056051;28;20036;-82
2022/08/09 04:06:20;;;;;;;6.22;5.32;;;;;;;19.37;57.15;94945.72;5063524;28;20048;-81
2022/08/09 04:08:46;;;;;;;5.93;5.32;;;;;;;19.47;57.09;94964.69;5069809;28;20103;-82
2022/08/09 04:11:11;;;;;;;5.82;5.22;;;;;;;19.37;56.97;94943.06;5052323;28;20025;-81
2022/08/09 04:13:38;;;;;;;7.22;5.43;;;;;;;19.50;57.10;94961.75;5052817;28;20021;-82
2022/08/09 04:16:03;;;;;;;5.90;5.40;;;;;;;19.52;57.41;94956.28;5053832;28;20033;-82
2022/08/09 04:18:29;;;;;;;6.32;5.60;;;;;;;19.93;57.20;95006.00;5052507;28;20029;-82
2022/08/09 04:20:54;;;;;;;6.03;5.43;;;;;;;20.13;56.01;94953.53;5054206;28;20021;-82
2022/08/09 04:23:20;;;;;;;6.63;5.25;;;;;;;22.51;49.62;94968.16;5056095;28;20110;-82
2022/08/09 04:25:45;;;;;;;7.47;5.25;;;;;;;23.02;48.29;94979.38;5072499;28;20040;-82
2022/08/09 04:28:11;;;;;;;5.47;4.97;;;;;;;21.90;50.39;94938.91;5055703;28;20029;-82
2022/08/09 04:30:37;;;;;;;6.50;5.15;;;;;;;23.33;46.90;94954.97;5073581;28;20094;-81
2022/08/09 04:33:02;;;;;;;6.13;5.28;;;;;;;23.15;47.64;95003.22;5073931;28;20458;-83
2022/08/09 04:35:28;;;;;;;7.20;4.95;;;;;;;22.25;49.48;94947.66;5072413;28;20032;-81
2022/08/09 04:37:53;;;;;;;6.47;4.88;;;;;;;22.16;49.82;94958.59;5073723;28;20530;-83
2022/08/09 04:40:19;;;;;;;5.45;4.90;;;;;;;22.89;48.60;94958.91;5072900;28;20017;-84
2022/08/09 04:42:45;;;;;;;5.22;4.72;;;;;;;23.42;46.46;94956.38;5072848;28;20032;-84
2022/08/09 04:45:11;;;;;;;6.15;4.95;;;;;;;25.95;41.21;94987.38;5072351;28;20050;-84
2022/08/09 04:47:37;;;;;;;5.82;4.60;;;;;;;29.38;34.26;94952.09;5055315;28;20073;-88
2022/08/09 04:50:02;;;;;;;4.93;4.25;;;;;;;31.77;30.20;94995.78;5055345;28;20051;-85
2022/08/09 04:52:28;;;;;;;4.57;4.18;;;;;;;32.59;28.18;95007.16;5071658;28;20497;-86
2022/08/09 04:54:54;;;;;;;6.10;4.15;;;;;;;33.77;26.22;94964.53;5070384;28;20418;-83
2022/08/09 04:57:20;;;;;;;5.18;4.68;;;;;;;34.42;25.35;94962.06;5070528;28;20483;-84
2022/08/09 04:59:45;;;;;;;5.93;4.38;;;;;;;35.47;24.11;94988.09;5053033;28;20036;-86
2022/08/09 05:02:12;;;;;;;5.10;4.10;;;;;;;36.52;22.57;94977.00;5053343;28;20032;-86
2022/08/09 05:04:38;;;;;;;5.38;4.18;;;;;;;37.50;21.93;95012.69;5069283;28;20516;-87
2022/08/09 05:07:04;;;;;;;4.88;4.30;;;;;;;38.10;21.18;94988.50;5070604;28;20028;-89
2022/08/09 05:09:30;;;;;;;5.32;4.55;;;;;;;38.58;20.61;95014.56;5050465;28;20433;-88
2022/08/09 05:11:56;;;;;;;6.70;4.40;;;;;;;36.06;22.99;94975.56;5070696;28;20151;-88
2022/08/09 05:14:22;;;;;;;5.38;4.65;;;;;;;32.11;28.39;95000.13;5032411;28;20021;-88
2022/08/09 05:16:48;;;;;;;6.60;4.88;;;;;;;30.05;31.99;94966.59;5066729;28;20468;-88
2022/08/09 05:19:13;;;;;;;6.05;4.70;;;;;;;29.19;33.13;94969.41;5060146;28;20029;-88
2022/08/09 05:21:40;;;;;;;6.15;4.47;;;;;;;28.96;33.90;94994.34;5046602;28;20036;-88
2022/08/09 05:24:05;;;;;;;4.80;4.32;;;;;;;28.72;35.23;95007.78;5049581;28;20067;-87
2022/08/09 05:26:31;;;;;;;7.22;4.90;;;;;;;28.38;35.87;95020.09;5048710;28;20090;-88
2022/08/09 05:28:57;;;;;;;5.95;4.38;;;;;;;28.28;35.90;95017.19;5062511;28;20020;-87
2022/08/09 05:31:22;;;;;;;7.00;4.28;;;;;;;28.07;36.60;95023.91;5060376;28;20070;-87
2022/08/09 05:33:48;;;;;;;5.72;4.57;;;;;;;27.89;37.44;95008.81;5081147;28;20032;-87
2022/08/09 05:36:14;;;;;;;5.68;4.63;;;;;;;27.79;39.37;95029.88;5056144;28;20461;-88
2022/08/09 05:38:40;;;;;;;5.00;4.38;;;;;;;27.65;39.55;95007.13;5060555;28;20116;-85
2022/08/09 05:41:05;;;;;;;7.25;4.50;;;;;;;27.53;38.94;95005.22;5042325;28;20114;-86
2022/08/09 05:43:34;;;;;;;5.43;4.72;;;;;;;27.79;38.75;95043.22;5049811;28;20033;-87
2022/08/09 05:46:00;;;;;;;8.80;4.78;;;;;;;27.41;39.04;94985.69;5065011;28;20025;-87
2022/08/09 05:48:26;;;;;;;5.78;4.70;;;;;;;27.55;39.71;95018.31;5055570;28;20574;-87
2022/08/09 05:50:51;;;;;;;5.32;4.65;;;;;;;27.20;40.03;94996.91;5051992;28;20033;-86
2022/08/09 05:53:17;;;;;;;5.35;4.63;;;;;;;27.28;39.79;94977.91;5059315;28;20062;-86
2022/08/09 05:55:42;;;;;;;5.80;4.88;;;;;;;27.46;38.66;95028.50;5015801;28;20419;-86
2022/08/09 05:58:08;;;;;;;6.82;6.10;;;;;;;27.23;38.50;95010.56;5048955;28;20116;-86
2022/08/09 06:00:33;;;;;;;8.63;5.65;;;;;;;27.09;36.79;94966.44;5034288;28;20028;-87
2022/08/09 06:03:16;;;;;;;6.50;5.55;;;;;;;27.08;37.52;94986.97;5046058;28;20557;-86
2022/08/09 06:05:42;;;;;;;5.97;5.10;;;;;;;27.02;36.92;94976.38;5050495;28;20127;-87
2022/08/09 06:08:07;;;;;;;6.43;5.30;;;;;;;27.14;37.46;94985.25;5032056;28;20049;-88
2022/08/09 06:10:39;;;;;;;7.90;5.65;;;;;;;27.09;37.24;94993.91;5045634;28;20030;-88
2022/08/09 06:13:11;;;;;;;6.20;5.60;;;;;;;27.40;37.66;95032.09;5040458;28;20032;-88
2022/08/09 06:15:37;;;;;;;9.05;5.82;;;;;;;27.10;37.57;94982.19;5032502;28;20087;-88
2022/08/09 06:18:03;;;;;;;6.65;5.75;;;;;;;27.13;36.84;95010.25;5031375;28;20128;-88
2022/08/09 06:20:28;;;;;;;9.23;6.55;;;;;;;27.03;36.60;94970.84;5047611;28;20447;-83
2022/08/09 06:22:54;;;;;;;8.90;6.60;;;;;;;27.31;37.07;95017.47;5046256;28;20029;-86
2022/08/09 06:25:19;;;;;;;8.48;6.38;;;;;;;27.29;36.72;94993.66;5030587;28;20505;-86
2022/08/09 06:27:45;;;;;;;8.43;6.90;;;;;;;27.34;36.96;94982.34;5029719;28;20338;-86
2022/08/09 06:30:11;;;;;;;7.00;6.30;;;;;;;27.64;36.75;95006.31;5030508;28;20036;-88
2022/08/09 06:32:36;;;;;;;7.20;6.18;;;;;;;27.90;37.78;95034.47;5037910;28;20131;-87
2022/08/09 06:35:02;;;;;;;9.07;6.30;;;;;;;27.53;36.58;94986.56;5035768;28;20021;-88
2022/08/09 06:37:28;;;;;;;8.70;6.05;;;;;;;27.59;37.37;94993.66;5052235;28;20406;-87
2022/08/09 06:39:53;;;;;;;7.45;6.30;;;;;;;27.52;37.06;94995.59;5049809;28;20079;-87
2022/08/09 06:42:19;;;;;;;10.10;6.30;;;;;;;27.52;37.28;94998.25;5046406;28;20612;-87
2022/08/09 06:44:45;;;;;;;9.23;6.10;;;;;;;27.77;37.35;94998.06;5030904;28;20541;-86
2022/08/09 06:47:10;;;;;;;9.27;6.60;;;;;;;27.78;37.27;94993.56;5045676;28;20029;-87
2022/08/09 06:49:36;;;;;;;11.15;6.50;;;;;;;28.03;36.96;95007.56;5027272;28;20023;-87
2022/08/09 06:52:05;;;;;;;9.63;7.13;;;;;;;27.76;37.24;95011.66;5045329;28;20186;-88
2022/08/09 06:54:34;;;;;;;8.13;6.80;;;;;;;27.92;37.13;95013.69;5022933;28;20426;-88
2022/08/09 06:57:02;;;;;;;14.38;7.57;;;;;;;27.93;37.01;94985.16;5042981;28;20482;-87
2022/08/09 06:59:27;;;;;;;10.45;7.70;;;;;;;28.28;36.24;95011.88;5047315;28;20392;-87
2022/08/09 07:01:53;;;;;;;10.27;7.10;;;;;;;28.40;36.24;95012.66;5055418;28;20101;-88
2022/08/09 07:04:19;;;;;;;11.60;8.13;;;;;;;28.46;35.78;95009.06;5064558;28;20040;-88
2022/08/09 07:06:44;;;;;;;13.40;9.98;;;;;;;28.33;35.56;94973.75;5055544;28;20068;-87
2022/08/09 07:09:11;;;;;;;10.80;9.63;;;;;;;28.61;34.96;95015.78;5049673;28;20085;-87
2022/08/09 07:11:36;;;;;;;13.32;11.85;;;;;;;28.73;34.01;95008.59;5066364;28;20044;-87
2022/08/09 07:14:02;;;;;;;13.80;12.15;;;;;;;28.64;33.21;94959.22;5050558;28;20544;-88
2022/08/09 07:16:28;;;;;;;12.15;10.95;;;;;;;29.10;33.39;95010.94;5032675;28;20421;-88
2022/08/09 07:18:53;;;;;;;11.35;10.18;;;;;;;28.77;33.71;94953.59;5034984;28;20032;-88
2022/08/09 07:21:19;;;;;;;9.13;8.02;;;;;;;29.21;33.12;95010.09;5065294;28;20498;-88
2022/08/09 07:23:44;;;;;;;11.50;8.13;;;;;;;28.90;31.26;94961.34;5081574;28;20394;-88
2022/08/09 07:26:10;;;;;;;7.82;6.95;;;;;;;29.21;31.72;94999.41;5079089;28;20025;-88
2022/08/09 07:28:36;;;;;;;8.15;6.78;;;;;;;29.25;31.64;95019.25;5030591;28;20119;-88
2022/08/09 07:31:03;;;;;;;7.35;6.28;;;;;;;28.49;32.27;94987.22;5065665;28;20017;-84
2022/08/09 07:33:29;;;;;;;8.45;6.13;;;;;;;28.73;32.30;94966.63;5050350;28;20028;-89
2022/08/09 07:35:55;;;;;;;8.02;6.63;;;;;;;29.17;32.55;95009.78;5055175;28;20086;-87
2022/08/09 07:38:21;;;;;;;8.90;6.53;;;;;;;29.24;32.05;94998.13;5072251;28;20509;-89
2022/08/09 07:40:46;;;;;;;11.27;7.15;;;;;;;29.29;31.83;95006.25;5055599;28;20025;-86
2022/08/09 07:43:12;;;;;;;7.95;6.93;;;;;;;29.39;31.74;95012.59;5054190;28;20025;-90
2022/08/09 07:45:37;;;;;;;7.93;6.93;;;;;;;29.30;32.85;94987.25;5051616;28;20033;-90
2022/08/09 07:48:03;;;;;;;10.35;6.95;;;;;;;29.47;31.96;94991.84;5069835;28;20036;-91
2022/08/09 07:50:29;;;;;;;11.82;7.10;;;;;;;29.47;31.31;94981.13;5053157;28;20057;-85
2022/08/09 07:52:54;;;;;;;11.70;6.28;;;;;;;29.58;31.83;94983.75;5045677;28;20021;-90
2022/08/09 07:55:20;;;;;;;7.93;6.65;;;;;;;29.71;31.75;94976.50;5045979;28;20040;-90
2022/08/09 07:57:47;;;;;;;8.18;5.90;;;;;;;30.13;31.98;95011.69;5052862;28;20025;-91
2022/08/09 08:00:17;;;;;;;8.63;6.57;;;;;;;30.05;30.75;94999.53;5050937;28;20494;-91
2022/08/09 08:02:42;;;;;;;8.43;6.72;;;;;;;29.77;31.03;94952.25;5050929;28;20025;-90
2022/08/09 08:05:08;;;;;;;8.18;6.57;;;;;;;30.00;31.02;94969.97;5050429;28;20734;-91
2022/08/09 08:07:34;;;;;;;13.23;6.80;;;;;;;30.13;30.46;95011.69;5054333;28;20406;-91
2022/08/09 08:09:59;;;;;;;9.30;6.80;;;;;;;29.75;30.94;94967.72;5055505;28;20037;-91
2022/08/09 08:12:25;;;;;;;11.32;6.68;;;;;;;30.00;30.90;95006.66;5070777;28;20035;-88
2022/08/09 08:14:51;;;;;;;7.30;6.50;;;;;;;29.83;30.77;94950.44;5087552;28;20029;-91
2022/08/09 08:17:16;;;;;;;8.90;5.78;;;;;;;30.01;29.85;94965.47;5041894;28;20063;-84
2022/08/09 08:19:42;;;;;;;7.88;6.43;;;;;;;30.22;28.32;94999.53;5053193;28;20081;-91
2022/08/09 08:22:07;;;;;;;8.25;6.13;;;;;;;29.82;29.36;94925.56;5045732;28;20068;-91
2022/08/09 08:24:33;;;;;;;10.23;5.95;;;;;;;29.83;28.95;94947.78;5055025;28;20509;-92
2022/08/09 08:26:59;;;;;;;9.10;5.55;;;;;;;30.03;30.09;94957.97;5054698;28;20655;-92
2022/08/09 08:29:24;;;;;;;7.75;5.78;;;;;;;29.94;29.32;94952.22;5046694;28;20040;-90
2022/08/09 08:31:50;;;;;;;9.88;6.10;;;;;;;30.05;29.66;94945.16;5067944;28;20032;-91
2022/08/09 08:34:16;;;;;;;6.35;4.85;;;;;;;30.31;28.33;94961.63;5059065;28;20112;-91
2022/08/09 08:36:41;;;;;;;7.20;4.97;;;;;;;30.05;27.81;94918.38;5068902;28;20078;-86
2022/08/09 08:39:07;;;;;;;7.20;4.40;;;;;;;29.80;28.49;94911.59;5033987;28;20423;-91
2022/08/09 08:41:32;;;;;;;5.82;3.88;;;;;;;29.98;27.46;94944.53;5044898;28;20609;-84
2022/08/09 08:43:58;;;;;;;6.13;4.25;;;;;;;30.27;27.93;94974.72;5068266;28;20029;-91
2022/08/09 08:46:25;;;;;;;7.95;4.20;;;;;;;29.96;27.39;94942.09;5069290;28;20028;-84
2022/08/09 08:48:50;;;;;;;4.63;4.13;;;;;;;30.21;27.61;94949.69;5062874;28;20035;-92
2022/08/09 08:51:16;;;;;;;6.38;4.05;;;;;;;30.35;26.36;94971.59;5070564;28;20111;-91
2022/08/09 08:53:42;;;;;;;4.97;4.07;;;;;;;30.40;27.36;94963.66;5068477;28;20055;-91
2022/08/09 08:56:07;;;;;;;5.35;3.83;;;;;;;30.21;27.42;94930.13;5075077;28;20024;-88
2022/08/09 08:58:34;;;;;;;5.47;3.60;;;;;;;30.45;27.40;94957.53;5053415;28;20087;-91
2022/08/09 09:01:02;;;;;;;5.22;3.45;;;;;;;29.43;25.27;94883.69;5071195;28;20556;-91
2022/08/09 09:03:32;;;;;;;6.15;3.35;;;;;;;29.59;25.72;94920.34;5068120;28;20040;-91
2022/08/09 09:05:57;;;;;;;5.28;3.58;;;;;;;29.45;26.91;94914.50;5054870;28;20032;-91
2022/08/09 09:08:23;;;;;;;5.80;3.90;;;;;;;29.45;26.65;94897.63;5052728;28;20476;-92
2022/08/09 09:10:48;;;;;;;5.00;3.58;;;;;;;29.42;26.44;94893.59;5055127;28;20025;-91
2022/08/09 09:13:15;;;;;;;5.18;3.30;;;;;;;29.84;26.49;94928.81;5063205;28;20028;-92
2022/08/09 09:15:40;;;;;;;6.97;3.50;;;;;;;29.89;26.17;94909.31;5053305;28;20577;-91
2022/08/09 09:18:06;;;;;;;5.78;3.45;;;;;;;30.06;25.78;94903.94;5079830;28;20043;-92
2022/08/09 09:20:33;;;;;;;4.28;3.33;;;;;;;29.67;25.63;94890.53;5047142;28;20134;-93
2022/08/09 09:22:59;;;;;;;5.15;2.70;;;;;;;29.98;23.78;94893.66;5053179;28;20032;-92
2022/08/09 09:25:42;;;;;;;8.55;2.88;;;;;;;30.34;22.92;94908.38;5042704;28;20064;-89
2022/08/09 09:28:08;;;;;;;3.13;2.20;;;;;;;30.47;22.42;94889.22;5059227;28;20509;-94
2022/08/09 09:30:51;;;;;;;5.30;2.53;;;;;;;30.73;24.36;94919.84;5038151;28;20032;-89
2022/08/09 09:33:17;;;;;;;4.00;2.47;;;;;;;30.63;23.61;94887.53;5048881;28;20461;-90
2022/08/09 09:35:55;;;;;;;4.63;2.38;;;;;;;30.75;22.80;94914.22;5051232;28;20029;-87
2022/08/09 09:38:21;;;;;;;5.57;2.38;;;;;;;30.82;22.55;94895.31;5088489;28;20033;-91
2022/08/09 09:40:47;;;;;;;8.40;2.42;;;;;;;30.91;22.07;94904.50;5070362;28;20394;-90
2022/08/09 09:43:17;;;;;;;6.85;2.63;;;;;;;30.61;22.23;94868.22;5037132;28;20024;-91
2022/08/09 09:45:50;;;;;;;4.10;2.20;;;;;;;30.79;23.65;94890.41;5054420;28;20036;-91
2022/08/09 09:48:16;;;;;;;5.85;2.10;;;;;;;30.76;20.89;94897.09;5054195;28;20820;-92
2022/08/09 09:50:43;;;;;;;5.07;2.55;;;;;;;30.83;21.19;94921.03;5052370;28;20037;-89
2022/08/09 09:53:19;;;;;;;5.40;2.45;;;;;;;30.58;22.16;94868.72;5051046;28;20048;-91
2022/08/09 09:55:59;;;;;;;5.00;2.30;;;;;;;30.99;22.02;94911.31;5035086;28;20240;-93
2022/08/09 09:58:25;;;;;;;3.60;2.20;;;;;;;31.06;22.15;94890.44;5068940;28;20032;-91
2022/08/09 10:00:53;;;;;;;5.15;1.98;;;;;;;30.98;20.21;94878.31;5051386;28;20051;-91
2022/08/09 10:03:36;;;;;;;5.10;1.80;;;;;;;31.19;20.17;94903.44;5043043;28;20127;-91
2022/08/09 10:06:02;;;;;;;2.63;1.67;;;;;;;31.25;20.18;94899.75;5060321;28;20036;-90
2022/08/09 10:08:27;;;;;;;4.05;1.90;;;;;;;31.15;19.89;94891.63;5067853;28;20032;-92
2022/08/09 10:10:53;;;;;;;4.47;1.80;;;;;;;31.29;21.08;94897.38;5049301;28;20527;-90
2022/08/09 10:13:19;;;;;;;4.70;2.00;;;;;;;31.10;20.41;94868.22;5048560;28;20032;-90
2022/08/09 10:15:52;;;;;;;3.05;1.90;;;;;;;31.15;21.70;94884.38;5048415;28;20039;-91
2022/08/09 10:18:18;;;;;;;3.58;2.00;;;;;;;30.99;22.39;94857.66;5050079;28;20040;-91
2022/08/09 10:20:43;;;;;;;4.57;2.30;;;;;;;31.11;20.70;94883.25;5048390;28;20033;-88
2022/08/09 10:23:20;;;;;;;3.67;2.00;;;;;;;31.29;21.49;94876.72;5047480;28;20032;-91
2022/08/09 10:25:45;;;;;;;5.25;1.88;;;;;;;31.43;20.47;94879.81;5032898;28;20029;-91
2022/08/09 10:28:11;;;;;;;4.53;1.50;;;;;;;31.15;19.92;94862.91;5062512;28;20316;-91
2022/08/09 10:30:37;;;;;;;7.82;1.77;;;;;;;30.84;18.80;94855.63;5042427;28;20036;-89
2022/08/09 10:33:03;;;;;;;3.15;2.00;;;;;;;30.96;20.17;94868.91;5037636;28;20029;-90
2022/08/09 10:35:30;;;;;;;3.28;1.70;;;;;;;30.98;19.32;94872.13;5051815;28;20498;-91
2022/08/09 10:37:56;;;;;;;4.80;1.55;;;;;;;30.75;21.53;94830.31;5036289;28;20094;-91
2022/08/09 10:40:21;;;;;;;2.20;1.58;;;;;;;31.09;21.24;94869.31;5064922;28;20036;-91
2022/08/09 10:42:47;;;;;;;4.00;1.42;;;;;;;31.14;19.62;94888.09;5067374;28;20020;-91
2022/08/09 10:45:13;;;;;;;2.95;1.75;;;;;;;30.64;19.91;94835.56;5050912;28;20020;-90
2022/08/09 10:47:53;;;;;;;5.85;2.05;;;;;;;30.88;20.15;94895.09;5052555;28;20553;-91
2022/08/09 10:51:05;;;;;;;4.43;1.80;;;;;;;30.86;21.16;94891.03;5067986;28;20052;-91
2022/08/09 10:53:34;;;;;;;4.47;1.80;;;;;;;30.85;21.22;94890.25;5064880;28;20053;-91
2022/08/09 10:56:16;;;;;;;5.03;1.50;;;;;;;30.94;20.82;94887.91;5084440;28;20041;-91
2022/08/09 10:58:41;;;;;;;2.78;1.60;;;;;;;30.20;20.63;94824.88;5067250;28;20031;-90
2022/08/09 11:01:34;;;;;;;2.75;1.80;;;;;;;30.74;21.24;94896.53;5068684;28;20116;-89
2022/08/09 11:04:08;;;;;;;11.13;2.20;;;;;;;30.64;21.92;94889.16;5068517;28;20021;-91
2022/08/09 11:06:36;;;;;;;6.35;2.35;;;;;;;30.35;22.63;94848.38;5086444;28;20450;-87
2022/08/09 11:09:02;;;;;;;7.00;2.10;;;;;;;30.50;22.37;94855.75;5051902;28;20062;-91
2022/08/09 11:11:57;;;;;;;3.65;2.03;;;;;;;30.66;21.67;94865.59;5042768;28;20040;-92
2022/08/09 11:14:40;;;;;;;3.90;2.25;;;;;;;30.80;22.74;94882.13;5080632;28;20115;-91
2022/08/09 11:17:12;;;;;;;7.25;2.05;;;;;;;30.61;20.42;94897.69;5036759;28;20052;-90
2022/08/09 11:20:08;;;;;;;4.47;1.98;;;;;;;30.45;21.54;94883.34;5071097;28;20155;-90
2022/08/09 11:22:40;;;;;;;6.82;2.10;;;;;;;30.43;21.56;94881.97;5067283;28;20037;-91
2022/08/09 11:25:07;;;;;;;4.13;1.80;;;;;;;30.25;21.43;94838.31;5070108;28;20037;-92
2022/08/09 11:27:35;;;;;;;3.42;1.80;;;;;;;30.53;21.48;94887.41;5086104;28;20040;-92
2022/08/09 11:30:01;;;;;;;5.05;1.83;;;;;;;30.30;21.35;94842.94;5069998;28;20032;-92
2022/08/09 11:32:40;;;;;;;5.25;2.38;;;;;;;30.56;21.14;94875.38;5049536;28;20506;-91
2022/08/09 11:35:31;;;;;;;8.18;2.65;;;;;;;30.19;21.52;94833.13;5053618;28;20028;-92